sensor_id;sensor_type;location;lat;lon;timestamp;pressure;altitude;pressure_sealevel;temperature
69590;BMP180;56792;50.644;17.984;2023-04-24T00:00:04;98753.20;;;13.28
69590;BMP180;56792;50.644;17.984;2023-04-24T00:02:33;98746.20;;;13.30
69590;BMP180;56792;50.644;17.984;2023-04-24T00:05:01;98741.80;;;13.30
69590;BMP180;56792;50.644;17.984;2023-04-24T00:07:30;98740.00;;;13.30
69590;BMP180;56792;50.644;17.984;2023-04-24T00:09:58;98740.20;;;13.30
69590;BMP180;56792;50.644;17.984;2023-04-24T00:12:27;98736.40;;;13.30
69590;BMP180;56792;50.644;17.984;2023-04-24T00:14:55;98737.20;;;13.30
69590;BMP180;56792;50.644;17.984;2023-04-24T00:17:24;98731.60;;;13.30
69590;BMP180;56792;50.644;17.984;2023-04-24T00:19:52;98730.40;;;13.30
69590;BMP180;56792;50.644;17.984;2023-04-24T00:22:26;98725.80;;;13.30
69590;BMP180;56792;50.644;17.984;2023-04-24T00:24:54;98725.00;;;13.30
69590;BMP180;56792;50.644;17.984;2023-04-24T00:27:23;98721.00;;;13.30
69590;BMP180;56792;50.644;17.984;2023-04-24T00:29:51;98713.20;;;13.30
69590;BMP180;56792;50.644;17.984;2023-04-24T00:32:20;98713.80;;;13.30
69590;BMP180;56792;50.644;17.984;2023-04-24T00:34:49;98711.40;;;13.30
69590;BMP180;56792;50.644;17.984;2023-04-24T00:37:18;98714.00;;;13.30
69590;BMP180;56792;50.644;17.984;2023-04-24T00:39:46;98710.40;;;13.30
69590;BMP180;56792;50.644;17.984;2023-04-24T00:42:15;98706.80;;;13.30
69590;BMP180;56792;50.644;17.984;2023-04-24T00:44:43;98707.00;;;13.30
69590;BMP180;56792;50.644;17.984;2023-04-24T00:47:12;98710.00;;;13.30
69590;BMP180;56792;50.644;17.984;2023-04-24T00:49:40;98711.20;;;13.30
69590;BMP180;56792;50.644;17.984;2023-04-24T00:52:08;98709.00;;;13.30
69590;BMP180;56792;50.644;17.984;2023-04-24T00:54:37;98707.00;;;13.30
69590;BMP180;56792;50.644;17.984;2023-04-24T00:57:06;98703.00;;;13.30
69590;BMP180;56792;50.644;17.984;2023-04-24T00:59:34;98703.00;;;13.32
69590;BMP180;56792;50.644;17.984;2023-04-24T01:02:04;98705.00;;;13.34
69590;BMP180;56792;50.644;17.984;2023-04-24T01:04:32;98706.20;;;13.32
69590;BMP180;56792;50.644;17.984;2023-04-24T01:07:01;98703.20;;;13.32
69590;BMP180;56792;50.644;17.984;2023-04-24T01:09:30;98704.40;;;13.32
69590;BMP180;56792;50.644;17.984;2023-04-24T01:11:59;98700.60;;;13.32
69590;BMP180;56792;50.644;17.984;2023-04-24T01:14:28;98700.40;;;13.40
69590;BMP180;56792;50.644;17.984;2023-04-24T01:16:58;98695.60;;;13.40
69590;BMP180;56792;50.644;17.984;2023-04-24T01:19:26;98693.40;;;13.38
69590;BMP180;56792;50.644;17.984;2023-04-24T01:21:58;98691.20;;;13.30
69590;BMP180;56792;50.644;17.984;2023-04-24T01:24:30;98688.20;;;13.30
69590;BMP180;56792;50.644;17.984;2023-04-24T01:26:59;98691.00;;;13.30
69590;BMP180;56792;50.644;17.984;2023-04-24T01:29:28;98683.80;;;13.30
69590;BMP180;56792;50.644;17.984;2023-04-24T01:31:57;98682.00;;;13.30
69590;BMP180;56792;50.644;17.984;2023-04-24T01:34:27;98685.00;;;13.30
69590;BMP180;56792;50.644;17.984;2023-04-24T01:36:55;98681.40;;;13.30
69590;BMP180;56792;50.644;17.984;2023-04-24T01:39:24;98677.80;;;13.30
69590;BMP180;56792;50.644;17.984;2023-04-24T01:41:55;98678.20;;;13.30
69590;BMP180;56792;50.644;17.984;2023-04-24T01:44:24;98673.60;;;13.30
69590;BMP180;56792;50.644;17.984;2023-04-24T01:46:53;98674.80;;;13.30
69590;BMP180;56792;50.644;17.984;2023-04-24T01:49:22;98669.40;;;13.30
69590;BMP180;56792;50.644;17.984;2023-04-24T01:51:50;98666.60;;;13.30
69590;BMP180;56792;50.644;17.984;2023-04-24T01:54:19;98669.40;;;13.40
69590;BMP180;56792;50.644;17.984;2023-04-24T01:56:48;98667.80;;;13.40
69590;BMP180;56792;50.644;17.984;2023-04-24T01:59:17;98666.40;;;13.40
69590;BMP180;56792;50.644;17.984;2023-04-24T02:01:46;98665.00;;;13.40
69590;BMP180;56792;50.644;17.984;2023-04-24T02:04:14;98667.60;;;13.50
69590;BMP180;56792;50.644;17.984;2023-04-24T02:06:42;98662.00;;;13.50
69590;BMP180;56792;50.644;17.984;2023-04-24T02:09:11;98659.80;;;13.50
69590;BMP180;56792;50.644;17.984;2023-04-24T02:11:39;98660.80;;;13.52
69590;BMP180;56792;50.644;17.984;2023-04-24T02:14:07;98654.20;;;13.58
69590;BMP180;56792;50.644;17.984;2023-04-24T02:16:35;98650.80;;;13.60
69590;BMP180;56792;50.644;17.984;2023-04-24T02:19:04;98648.60;;;13.60
69590;BMP180;56792;50.644;17.984;2023-04-24T02:21:32;98646.00;;;13.60
69590;BMP180;56792;50.644;17.984;2023-04-24T02:24:00;98642.60;;;13.60
69590;BMP180;56792;50.644;17.984;2023-04-24T02:26:29;98637.40;;;13.60
69590;BMP180;56792;50.644;17.984;2023-04-24T02:28:59;98636.80;;;13.60
69590;BMP180;56792;50.644;17.984;2023-04-24T02:31:27;98634.20;;;13.60
69590;BMP180;56792;50.644;17.984;2023-04-24T02:33:56;98624.80;;;13.68
69590;BMP180;56792;50.644;17.984;2023-04-24T02:36:24;98625.00;;;13.70
69590;BMP180;56792;50.644;17.984;2023-04-24T02:38:52;98619.60;;;13.70
69590;BMP180;56792;50.644;17.984;2023-04-24T02:41:20;98614.80;;;13.70
69590;BMP180;56792;50.644;17.984;2023-04-24T02:43:49;98614.60;;;13.70
69590;BMP180;56792;50.644;17.984;2023-04-24T02:46:17;98609.00;;;13.70
69590;BMP180;56792;50.644;17.984;2023-04-24T02:48:46;98609.40;;;13.70
69590;BMP180;56792;50.644;17.984;2023-04-24T02:51:14;98609.40;;;13.74
69590;BMP180;56792;50.644;17.984;2023-04-24T02:53:42;98608.20;;;13.80
69590;BMP180;56792;50.644;17.984;2023-04-24T02:56:10;98613.20;;;13.80
69590;BMP180;56792;50.644;17.984;2023-04-24T02:58:39;98611.20;;;13.80
69590;BMP180;56792;50.644;17.984;2023-04-24T03:01:08;98612.40;;;13.80
69590;BMP180;56792;50.644;17.984;2023-04-24T03:03:37;98611.60;;;13.80
69590;BMP180;56792;50.644;17.984;2023-04-24T03:06:06;98617.00;;;13.80
69590;BMP180;56792;50.644;17.984;2023-04-24T03:08:36;98618.20;;;13.80
69590;BMP180;56792;50.644;17.984;2023-04-24T03:11:04;98619.60;;;13.80
69590;BMP180;56792;50.644;17.984;2023-04-24T03:13:32;98614.60;;;13.80
69590;BMP180;56792;50.644;17.984;2023-04-24T03:16:00;98620.20;;;13.80
69590;BMP180;56792;50.644;17.984;2023-04-24T03:18:29;98624.40;;;13.80
69590;BMP180;56792;50.644;17.984;2023-04-24T03:20:57;98619.00;;;13.80
69590;BMP180;56792;50.644;17.984;2023-04-24T03:23:25;98619.80;;;13.80
69590;BMP180;56792;50.644;17.984;2023-04-24T03:25:54;98626.60;;;13.80
69590;BMP180;56792;50.644;17.984;2023-04-24T03:28:22;98623.40;;;13.80
69590;BMP180;56792;50.644;17.984;2023-04-24T03:31:04;98625.40;;;13.80
69590;BMP180;56792;50.644;17.984;2023-04-24T03:33:35;98627.00;;;13.80
69590;BMP180;56792;50.644;17.984;2023-04-24T03:36:05;98623.00;;;13.76
69590;BMP180;56792;50.644;17.984;2023-04-24T03:38:41;98625.40;;;13.70
69590;BMP180;56792;50.644;17.984;2023-04-24T03:41:24;98621.60;;;13.70
69590;BMP180;56792;50.644;17.984;2023-04-24T03:44:11;98620.80;;;13.70
69590;BMP180;56792;50.644;17.984;2023-04-24T03:46:39;98620.40;;;13.70
69590;BMP180;56792;50.644;17.984;2023-04-24T03:49:08;98620.40;;;13.70
69590;BMP180;56792;50.644;17.984;2023-04-24T03:51:38;98623.20;;;13.70
69590;BMP180;56792;50.644;17.984;2023-04-24T03:54:21;98624.60;;;13.70
69590;BMP180;56792;50.644;17.984;2023-04-24T03:56:50;98627.80;;;13.70
69590;BMP180;56792;50.644;17.984;2023-04-24T03:59:19;98623.80;;;13.66
69590;BMP180;56792;50.644;17.984;2023-04-24T04:01:52;98624.60;;;13.60
69590;BMP180;56792;50.644;17.984;2023-04-24T04:04:20;98626.20;;;13.62
69590;BMP180;56792;50.644;17.984;2023-04-24T04:06:48;98623.80;;;13.60
69590;BMP180;56792;50.644;17.984;2023-04-24T04:09:16;98631.40;;;13.60
69590;BMP180;56792;50.644;17.984;2023-04-24T04:11:45;98630.40;;;13.60
69590;BMP180;56792;50.644;17.984;2023-04-24T04:14:13;98626.60;;;13.60
69590;BMP180;56792;50.644;17.984;2023-04-24T04:16:43;98627.80;;;13.60
69590;BMP180;56792;50.644;17.984;2023-04-24T04:19:12;98626.20;;;13.60
69590;BMP180;56792;50.644;17.984;2023-04-24T04:21:40;98626.00;;;13.54
69590;BMP180;56792;50.644;17.984;2023-04-24T04:24:18;98628.40;;;13.50
69590;BMP180;56792;50.644;17.984;2023-04-24T04:26:47;98624.60;;;13.50
69590;BMP180;56792;50.644;17.984;2023-04-24T04:29:24;98627.00;;;13.50
69590;BMP180;56792;50.644;17.984;2023-04-24T04:31:53;98630.20;;;13.50
69590;BMP180;56792;50.644;17.984;2023-04-24T04:34:22;98629.00;;;13.50
69590;BMP180;56792;50.644;17.984;2023-04-24T04:36:51;98626.40;;;13.48
69590;BMP180;56792;50.644;17.984;2023-04-24T04:39:40;98627.40;;;13.40
69590;BMP180;56792;50.644;17.984;2023-04-24T04:42:12;98624.80;;;13.50
69590;BMP180;56792;50.644;17.984;2023-04-24T04:44:42;98619.40;;;13.50
69590;BMP180;56792;50.644;17.984;2023-04-24T04:47:17;98621.40;;;13.50
69590;BMP180;56792;50.644;17.984;2023-04-24T04:49:46;98619.40;;;13.50
69590;BMP180;56792;50.644;17.984;2023-04-24T04:52:20;98621.60;;;13.50
69590;BMP180;56792;50.644;17.984;2023-04-24T04:54:52;98622.60;;;13.50
69590;BMP180;56792;50.644;17.984;2023-04-24T04:57:21;98621.80;;;13.52
69590;BMP180;56792;50.644;17.984;2023-04-24T04:59:50;98617.40;;;13.60
69590;BMP180;56792;50.644;17.984;2023-04-24T05:02:24;98617.40;;;13.60
69590;BMP180;56792;50.644;17.984;2023-04-24T05:04:53;98617.40;;;13.60
69590;BMP180;56792;50.644;17.984;2023-04-24T05:07:21;98617.20;;;13.60
69590;BMP180;56792;50.644;17.984;2023-04-24T05:09:51;98619.00;;;13.60
69590;BMP180;56792;50.644;17.984;2023-04-24T05:12:20;98621.80;;;13.60
69590;BMP180;56792;50.644;17.984;2023-04-24T05:14:52;98622.20;;;13.60
69590;BMP180;56792;50.644;17.984;2023-04-24T05:17:20;98619.80;;;13.60
69590;BMP180;56792;50.644;17.984;2023-04-24T05:19:48;98621.40;;;13.60
69590;BMP180;56792;50.644;17.984;2023-04-24T05:22:17;98620.00;;;13.60
69590;BMP180;56792;50.644;17.984;2023-04-24T05:24:50;98617.00;;;13.70
69590;BMP180;56792;50.644;17.984;2023-04-24T05:27:37;98617.80;;;13.70
69590;BMP180;56792;50.644;17.984;2023-04-24T05:30:11;98615.80;;;13.70
69590;BMP180;56792;50.644;17.984;2023-04-24T05:32:39;98619.00;;;13.70
69590;BMP180;56792;50.644;17.984;2023-04-24T05:35:09;98621.00;;;13.76
69590;BMP180;56792;50.644;17.984;2023-04-24T05:37:38;98623.80;;;13.80
69590;BMP180;56792;50.644;17.984;2023-04-24T05:40:10;98623.20;;;13.80
69590;BMP180;56792;50.644;17.984;2023-04-24T05:42:38;98622.60;;;13.80
69590;BMP180;56792;50.644;17.984;2023-04-24T05:45:09;98624.00;;;13.80
69590;BMP180;56792;50.644;17.984;2023-04-24T05:47:43;98630.60;;;13.80
69590;BMP180;56792;50.644;17.984;2023-04-24T05:50:13;98625.80;;;13.74
69590;BMP180;56792;50.644;17.984;2023-04-24T05:52:42;98628.40;;;13.70
69590;BMP180;56792;50.644;17.984;2023-04-24T05:55:22;98625.00;;;13.70
69590;BMP180;56792;50.644;17.984;2023-04-24T05:57:50;98624.80;;;13.70
69590;BMP180;56792;50.644;17.984;2023-04-24T06:00:19;98620.40;;;13.78
69590;BMP180;56792;50.644;17.984;2023-04-24T06:02:51;98618.00;;;13.80
69590;BMP180;56792;50.644;17.984;2023-04-24T06:05:21;98620.20;;;13.78
69590;BMP180;56792;50.644;17.984;2023-04-24T06:07:50;98617.80;;;13.80
69590;BMP180;56792;50.644;17.984;2023-04-24T06:10:18;98611.20;;;13.80
69590;BMP180;56792;50.644;17.984;2023-04-24T06:12:46;98613.20;;;13.90
69590;BMP180;56792;50.644;17.984;2023-04-24T06:15:18;98612.40;;;13.90
69590;BMP180;56792;50.644;17.984;2023-04-24T06:17:52;98612.00;;;13.90
69590;BMP180;56792;50.644;17.984;2023-04-24T06:20:22;98614.40;;;14.00
69590;BMP180;56792;50.644;17.984;2023-04-24T06:22:50;98611.60;;;14.08
69590;BMP180;56792;50.644;17.984;2023-04-24T06:25:18;98611.20;;;14.10
69590;BMP180;56792;50.644;17.984;2023-04-24T06:27:47;98608.20;;;14.20
69590;BMP180;56792;50.644;17.984;2023-04-24T06:30:15;98616.60;;;14.30
69590;BMP180;56792;50.644;17.984;2023-04-24T06:32:43;98610.60;;;14.40
69590;BMP180;56792;50.644;17.984;2023-04-24T06:35:11;98613.40;;;14.50
69590;BMP180;56792;50.644;17.984;2023-04-24T06:37:42;98609.00;;;14.60
69590;BMP180;56792;50.644;17.984;2023-04-24T06:40:11;98614.60;;;14.70
69590;BMP180;56792;50.644;17.984;2023-04-24T06:42:39;98612.20;;;14.80
69590;BMP180;56792;50.644;17.984;2023-04-24T06:45:10;98613.80;;;14.90
69590;BMP180;56792;50.644;17.984;2023-04-24T06:47:39;98612.80;;;15.08
69590;BMP180;56792;50.644;17.984;2023-04-24T06:50:09;98615.20;;;15.20
69590;BMP180;56792;50.644;17.984;2023-04-24T06:52:38;98612.20;;;15.30
69590;BMP180;56792;50.644;17.984;2023-04-24T06:55:09;98618.00;;;15.46
69590;BMP180;56792;50.644;17.984;2023-04-24T06:57:38;98616.60;;;15.50
69590;BMP180;56792;50.644;17.984;2023-04-24T07:00:10;98621.40;;;15.60
69590;BMP180;56792;50.644;17.984;2023-04-24T07:02:39;98626.20;;;15.70
69590;BMP180;56792;50.644;17.984;2023-04-24T07:05:08;98627.60;;;15.80
69590;BMP180;56792;50.644;17.984;2023-04-24T07:07:36;98623.00;;;15.90
69590;BMP180;56792;50.644;17.984;2023-04-24T07:10:08;98631.60;;;16.00
69590;BMP180;56792;50.644;17.984;2023-04-24T07:12:37;98628.60;;;16.06
69590;BMP180;56792;50.644;17.984;2023-04-24T07:15:08;98631.20;;;16.10
69590;BMP180;56792;50.644;17.984;2023-04-24T07:17:36;98631.00;;;16.20
69590;BMP180;56792;50.644;17.984;2023-04-24T07:20:08;98631.60;;;16.20
69590;BMP180;56792;50.644;17.984;2023-04-24T07:22:38;98628.80;;;16.34
69590;BMP180;56792;50.644;17.984;2023-04-24T07:25:09;98633.60;;;16.42
69590;BMP180;56792;50.644;17.984;2023-04-24T07:27:37;98629.80;;;16.50
69590;BMP180;56792;50.644;17.984;2023-04-24T07:30:08;98626.80;;;16.50
69590;BMP180;56792;50.644;17.984;2023-04-24T07:32:37;98625.40;;;16.50
69590;BMP180;56792;50.644;17.984;2023-04-24T07:35:07;98627.40;;;16.60
69590;BMP180;56792;50.644;17.984;2023-04-24T07:37:37;98624.80;;;16.62
69590;BMP180;56792;50.644;17.984;2023-04-24T07:40:07;98620.40;;;16.80
69590;BMP180;56792;50.644;17.984;2023-04-24T07:42:36;98625.40;;;16.92
69590;BMP180;56792;50.644;17.984;2023-04-24T07:45:07;98622.60;;;17.10
69590;BMP180;56792;50.644;17.984;2023-04-24T07:47:36;98625.40;;;17.34
69590;BMP180;56792;50.644;17.984;2023-04-24T07:50:06;98624.60;;;17.60
69590;BMP180;56792;50.644;17.984;2023-04-24T07:52:34;98625.40;;;17.80
69590;BMP180;56792;50.644;17.984;2023-04-24T07:55:03;98619.60;;;18.00
69590;BMP180;56792;50.644;17.984;2023-04-24T07:57:32;98623.60;;;18.20
69590;BMP180;56792;50.644;17.984;2023-04-24T08:00:00;98619.60;;;18.30
69590;BMP180;56792;50.644;17.984;2023-04-24T08:02:39;98624.00;;;18.50
69590;BMP180;56792;50.644;17.984;2023-04-24T08:05:09;98620.00;;;18.60
69590;BMP180;56792;50.644;17.984;2023-04-24T08:07:37;98619.60;;;18.70
69590;BMP180;56792;50.644;17.984;2023-04-24T08:10:09;98621.80;;;18.88
69590;BMP180;56792;50.644;17.984;2023-04-24T08:12:38;98622.40;;;18.90
69590;BMP180;56792;50.644;17.984;2023-04-24T08:15:09;98620.80;;;19.00
69590;BMP180;56792;50.644;17.984;2023-04-24T08:17:38;98622.40;;;19.00
69590;BMP180;56792;50.644;17.984;2023-04-24T08:20:10;98620.60;;;19.10
69590;BMP180;56792;50.644;17.984;2023-04-24T08:22:41;98616.40;;;19.12
69590;BMP180;56792;50.644;17.984;2023-04-24T08:25:10;98619.00;;;19.24
69590;BMP180;56792;50.644;17.984;2023-04-24T08:27:38;98619.40;;;19.40
69590;BMP180;56792;50.644;17.984;2023-04-24T08:30:09;98623.60;;;19.50
69590;BMP180;56792;50.644;17.984;2023-04-24T08:32:38;98620.60;;;19.50
69590;BMP180;56792;50.644;17.984;2023-04-24T08:35:08;98627.40;;;19.50
69590;BMP180;56792;50.644;17.984;2023-04-24T08:37:36;98623.40;;;19.50
69590;BMP180;56792;50.644;17.984;2023-04-24T08:40:12;98622.80;;;19.60
69590;BMP180;56792;50.644;17.984;2023-04-24T08:42:43;98625.40;;;19.60
69590;BMP180;56792;50.644;17.984;2023-04-24T08:45:13;98623.00;;;19.70
69590;BMP180;56792;50.644;17.984;2023-04-24T08:47:42;98620.00;;;19.80
69590;BMP180;56792;50.644;17.984;2023-04-24T08:50:12;98624.00;;;19.80
69590;BMP180;56792;50.644;17.984;2023-04-24T08:52:42;98625.80;;;19.90
69590;BMP180;56792;50.644;17.984;2023-04-24T08:55:10;98624.00;;;19.80
69590;BMP180;56792;50.644;17.984;2023-04-24T08:57:39;98623.40;;;19.90
69590;BMP180;56792;50.644;17.984;2023-04-24T09:00:11;98625.40;;;19.90
69590;BMP180;56792;50.644;17.984;2023-04-24T09:02:42;98632.00;;;19.86
69590;BMP180;56792;50.644;17.984;2023-04-24T09:05:11;98628.20;;;19.90
69590;BMP180;56792;50.644;17.984;2023-04-24T09:07:43;98622.80;;;19.90
69590;BMP180;56792;50.644;17.984;2023-04-24T09:10:13;98619.80;;;20.02
69590;BMP180;56792;50.644;17.984;2023-04-24T09:12:42;98624.60;;;20.18
69590;BMP180;56792;50.644;17.984;2023-04-24T09:15:12;98622.60;;;20.30
69590;BMP180;56792;50.644;17.984;2023-04-24T09:17:41;98618.20;;;20.40
69590;BMP180;56792;50.644;17.984;2023-04-24T09:20:10;98619.60;;;20.50
69590;BMP180;56792;50.644;17.984;2023-04-24T09:22:39;98624.80;;;20.70
69590;BMP180;56792;50.644;17.984;2023-04-24T09:25:09;98622.00;;;20.80
69590;BMP180;56792;50.644;17.984;2023-04-24T09:27:44;98620.00;;;20.80
69590;BMP180;56792;50.644;17.984;2023-04-24T09:30:14;98621.40;;;20.96
69590;BMP180;56792;50.644;17.984;2023-04-24T09:32:48;98621.20;;;21.22
69590;BMP180;56792;50.644;17.984;2023-04-24T09:35:17;98621.60;;;21.42
69590;BMP180;56792;50.644;17.984;2023-04-24T09:37:47;98613.80;;;21.50
69590;BMP180;56792;50.644;17.984;2023-04-24T09:40:19;98618.80;;;21.70
69590;BMP180;56792;50.644;17.984;2023-04-24T09:42:54;98617.60;;;21.68
69590;BMP180;56792;50.644;17.984;2023-04-24T09:45:23;98614.00;;;21.50
69590;BMP180;56792;50.644;17.984;2023-04-24T09:47:56;98617.00;;;21.50
69590;BMP180;56792;50.644;17.984;2023-04-24T09:50:24;98615.80;;;21.56
69590;BMP180;56792;50.644;17.984;2023-04-24T09:53:01;98610.80;;;21.78
69590;BMP180;56792;50.644;17.984;2023-04-24T09:55:30;98612.40;;;22.24
69590;BMP180;56792;50.644;17.984;2023-04-24T09:58:00;98604.60;;;23.34
69590;BMP180;56792;50.644;17.984;2023-04-24T10:00:31;98606.00;;;25.00
69590;BMP180;56792;50.644;17.984;2023-04-24T10:03:01;98609.40;;;25.00
69590;BMP180;56792;50.644;17.984;2023-04-24T10:05:31;98607.40;;;24.90
69590;BMP180;56792;50.644;17.984;2023-04-24T10:08:04;98607.20;;;24.40
69590;BMP180;56792;50.644;17.984;2023-04-24T10:10:37;98609.80;;;23.96
69590;BMP180;56792;50.644;17.984;2023-04-24T10:13:08;98607.00;;;23.64
69590;BMP180;56792;50.644;17.984;2023-04-24T10:15:37;98600.20;;;23.30
69590;BMP180;56792;50.644;17.984;2023-04-24T10:18:06;98600.60;;;22.82
69590;BMP180;56792;50.644;17.984;2023-04-24T10:20:36;98602.40;;;22.12
69590;BMP180;56792;50.644;17.984;2023-04-24T10:23:06;98603.00;;;21.60
69590;BMP180;56792;50.644;17.984;2023-04-24T10:25:35;98597.60;;;21.30
69590;BMP180;56792;50.644;17.984;2023-04-24T10:28:05;98600.80;;;21.20
69590;BMP180;56792;50.644;17.984;2023-04-24T10:30:35;98605.00;;;21.20
69590;BMP180;56792;50.644;17.984;2023-04-24T10:33:06;98604.60;;;20.84
69590;BMP180;56792;50.644;17.984;2023-04-24T10:35:39;98607.20;;;20.50
69590;BMP180;56792;50.644;17.984;2023-04-24T10:38:13;98611.40;;;20.24
69590;BMP180;56792;50.644;17.984;2023-04-24T10:40:42;98607.80;;;20.00
69590;BMP180;56792;50.644;17.984;2023-04-24T10:43:11;98608.60;;;19.92
69590;BMP180;56792;50.644;17.984;2023-04-24T10:46:02;98611.40;;;19.80
69590;BMP180;56792;50.644;17.984;2023-04-24T10:48:31;98619.00;;;19.68
69590;BMP180;56792;50.644;17.984;2023-04-24T10:51:00;98616.00;;;19.46
69590;BMP180;56792;50.644;17.984;2023-04-24T10:53:30;98613.40;;;19.24
69590;BMP180;56792;50.644;17.984;2023-04-24T10:56:07;98620.20;;;19.00
69590;BMP180;56792;50.644;17.984;2023-04-24T10:58:42;98621.60;;;18.58
69590;BMP180;56792;50.644;17.984;2023-04-24T11:01:25;98622.80;;;18.20
69590;BMP180;56792;50.644;17.984;2023-04-24T11:03:57;98619.60;;;18.00
69590;BMP180;56792;50.644;17.984;2023-04-24T11:06:33;98618.80;;;18.20
69590;BMP180;56792;50.644;17.984;2023-04-24T11:09:08;98617.00;;;18.40
69590;BMP180;56792;50.644;17.984;2023-04-24T11:11:38;98621.80;;;18.90
69590;BMP180;56792;50.644;17.984;2023-04-24T11:14:15;98619.80;;;19.64
69590;BMP180;56792;50.644;17.984;2023-04-24T11:16:52;98615.20;;;20.32
69590;BMP180;56792;50.644;17.984;2023-04-24T11:19:24;98634.20;;;20.70
69590;BMP180;56792;50.644;17.984;2023-04-24T11:21:59;98623.80;;;20.40
69590;BMP180;56792;50.644;17.984;2023-04-24T11:24:37;98622.80;;;20.50
69590;BMP180;56792;50.644;17.984;2023-04-24T11:27:15;98625.80;;;20.40
69590;BMP180;56792;50.644;17.984;2023-04-24T11:29:48;98628.40;;;20.30
69590;BMP180;56792;50.644;17.984;2023-04-24T11:32:27;98627.20;;;20.12
69590;BMP180;56792;50.644;17.984;2023-04-24T11:34:58;98632.00;;;19.90
69590;BMP180;56792;50.644;17.984;2023-04-24T11:37:33;98630.40;;;19.54
69590;BMP180;56792;50.644;17.984;2023-04-24T11:40:02;98627.20;;;19.50
69590;BMP180;56792;50.644;17.984;2023-04-24T11:42:35;98624.00;;;20.06
69590;BMP180;56792;50.644;17.984;2023-04-24T11:45:10;98624.40;;;21.40
69590;BMP180;56792;50.644;17.984;2023-04-24T11:47:39;98628.00;;;21.44
69590;BMP180;56792;50.644;17.984;2023-04-24T11:50:12;98628.40;;;21.10
69590;BMP180;56792;50.644;17.984;2023-04-24T11:52:43;98621.20;;;21.26
69590;BMP180;56792;50.644;17.984;2023-04-24T11:55:25;98619.40;;;21.60
69590;BMP180;56792;50.644;17.984;2023-04-24T11:57:56;98612.40;;;22.00
69590;BMP180;56792;50.644;17.984;2023-04-24T12:00:26;98616.80;;;22.10
69590;BMP180;56792;50.644;17.984;2023-04-24T12:03:08;98613.80;;;22.20
69590;BMP180;56792;50.644;17.984;2023-04-24T12:05:38;98614.80;;;22.10
69590;BMP180;56792;50.644;17.984;2023-04-24T12:08:07;98617.00;;;21.76
69590;BMP180;56792;50.644;17.984;2023-04-24T12:10:36;98613.40;;;22.02
69590;BMP180;56792;50.644;17.984;2023-04-24T12:13:04;98608.00;;;22.40
69590;BMP180;56792;50.644;17.984;2023-04-24T12:15:33;98604.20;;;22.70
69590;BMP180;56792;50.644;17.984;2023-04-24T12:18:01;98606.60;;;22.90
69590;BMP180;56792;50.644;17.984;2023-04-24T12:20:32;98598.20;;;23.20
69590;BMP180;56792;50.644;17.984;2023-04-24T12:23:01;98599.20;;;23.08
69590;BMP180;56792;50.644;17.984;2023-04-24T12:25:32;98597.40;;;22.80
69590;BMP180;56792;50.644;17.984;2023-04-24T12:28:12;98598.60;;;22.64
69590;BMP180;56792;50.644;17.984;2023-04-24T12:30:43;98596.00;;;22.70
69590;BMP180;56792;50.644;17.984;2023-04-24T12:33:12;98596.40;;;22.40
69590;BMP180;56792;50.644;17.984;2023-04-24T12:35:41;98601.20;;;22.08
69590;BMP180;56792;50.644;17.984;2023-04-24T12:38:12;98592.00;;;21.58
69590;BMP180;56792;50.644;17.984;2023-04-24T12:40:42;98590.60;;;21.20
69590;BMP180;56792;50.644;17.984;2023-04-24T12:43:16;98589.80;;;20.76
69590;BMP180;56792;50.644;17.984;2023-04-24T12:45:45;98587.40;;;20.36
69590;BMP180;56792;50.644;17.984;2023-04-24T12:48:13;98589.60;;;20.04
69590;BMP180;56792;50.644;17.984;2023-04-24T12:50:42;98589.60;;;19.80
69590;BMP180;56792;50.644;17.984;2023-04-24T12:53:10;98586.60;;;19.50
69590;BMP180;56792;50.644;17.984;2023-04-24T12:55:39;98585.40;;;19.30
69590;BMP180;56792;50.644;17.984;2023-04-24T12:58:07;98588.60;;;19.00
69590;BMP180;56792;50.644;17.984;2023-04-24T13:00:36;98591.80;;;18.80
69590;BMP180;56792;50.644;17.984;2023-04-24T13:03:05;98587.40;;;18.50
69590;BMP180;56792;50.644;17.984;2023-04-24T13:05:33;98588.20;;;18.30
69590;BMP180;56792;50.644;17.984;2023-04-24T13:08:01;98587.00;;;18.14
69590;BMP180;56792;50.644;17.984;2023-04-24T13:10:29;98582.80;;;18.00
69590;BMP180;56792;50.644;17.984;2023-04-24T13:12:58;98580.00;;;17.80
69590;BMP180;56792;50.644;17.984;2023-04-24T13:15:26;98582.60;;;17.70
69590;BMP180;56792;50.644;17.984;2023-04-24T13:17:54;98579.20;;;17.52
69590;BMP180;56792;50.644;17.984;2023-04-24T13:20:22;98580.00;;;17.30
69590;BMP180;56792;50.644;17.984;2023-04-24T13:22:51;98577.60;;;17.10
69590;BMP180;56792;50.644;17.984;2023-04-24T13:25:19;98570.60;;;17.00
69590;BMP180;56792;50.644;17.984;2023-04-24T13:27:49;98574.20;;;17.00
69590;BMP180;56792;50.644;17.984;2023-04-24T13:30:18;98576.80;;;16.90
69590;BMP180;56792;50.644;17.984;2023-04-24T13:32:46;98573.40;;;16.72
69590;BMP180;56792;50.644;17.984;2023-04-24T13:35:15;98572.20;;;16.56
69590;BMP180;56792;50.644;17.984;2023-04-24T13:37:43;98571.60;;;16.50
69590;BMP180;56792;50.644;17.984;2023-04-24T13:40:12;98573.00;;;16.40
69590;BMP180;56792;50.644;17.984;2023-04-24T13:42:41;98565.00;;;16.20
69590;BMP180;56792;50.644;17.984;2023-04-24T13:45:11;98565.20;;;16.10
69590;BMP180;56792;50.644;17.984;2023-04-24T13:47:40;98559.40;;;16.00
69590;BMP180;56792;50.644;17.984;2023-04-24T13:50:10;98559.00;;;15.92
69590;BMP180;56792;50.644;17.984;2023-04-24T13:52:38;98553.20;;;15.90
69590;BMP180;56792;50.644;17.984;2023-04-24T13:55:08;98554.00;;;15.84
69590;BMP180;56792;50.644;17.984;2023-04-24T13:57:36;98557.20;;;15.80
69590;BMP180;56792;50.644;17.984;2023-04-24T14:00:08;98559.60;;;15.72
69590;BMP180;56792;50.644;17.984;2023-04-24T14:02:38;98558.40;;;15.60
69590;BMP180;56792;50.644;17.984;2023-04-24T14:05:07;98554.20;;;15.50
69590;BMP180;56792;50.644;17.984;2023-04-24T14:07:37;98556.20;;;15.50
69590;BMP180;56792;50.644;17.984;2023-04-24T14:10:07;98556.60;;;15.40
69590;BMP180;56792;50.644;17.984;2023-04-24T14:12:35;98556.00;;;15.30